Time;durP1;ratioP1;P1;durP2;ratioP2;P2;SDS_P1;SDS_P2;PMS_P1;PMS_P2;Temp;Humidity;BMP_temperature;BMP_pressure;BME280_temperature;BME280_humidity;BME280_pressure;Samples;Min_cycle;Max_cycle;Signal;HPM_P1;HPM_P2
2023/04/01 00:01:33;;;;;;;;;;;;;;;16.44;45.08;98843.13;4956211;28;127371;-68
2023/04/01 00:04:01;;;;;;;;;;;;;;;16.44;44.86;98837.69;4956118;28;118091;-67
2023/04/01 00:06:27;;;;;;;;;;;;;;;16.43;44.89;98841.56;4958001;28;97961;-64
2023/04/01 00:08:53;;;;;;;;;;;;;;;16.43;45.00;98838.84;4956949;28;121847;-63
2023/04/01 00:11:19;;;;;;;;;;;;;;;16.42;45.00;98831.81;4957864;28;126178;-63
2023/04/01 00:13:45;;;;;;;;;;;;;;;16.42;45.05;98839.97;4959678;28;97891;-62
2023/04/01 00:16:11;;;;;;;;;;;;;;;16.41;44.93;98839.16;4959180;28;126921;-63
2023/04/01 00:18:37;;;;;;;;;;;;;;;16.41;45.03;98831.00;4959287;28;128309;-63
2023/04/01 00:21:03;;;;;;;;;;;;;;;16.42;45.12;98839.97;4958738;28;106247;-64
2023/04/01 00:23:29;;;;;;;;;;;;;;;16.41;45.00;98830.22;4957130;28;97862;-67
2023/04/01 00:25:55;;;;;;;;;;;;;;;16.40;45.00;98836.81;4956702;28;127842;-66
2023/04/01 00:28:21;;;;;;;;;;;;;;;16.41;45.02;98841.09;4957018;28;126720;-63
2023/04/01 00:30:47;;;;;;;;;;;;;;;16.40;44.92;98836.81;4958164;28;97978;-64
2023/04/01 00:33:13;;;;;;;;;;;;;;;16.39;44.86;98836.03;4961126;28;97771;-68
2023/04/01 00:35:39;;;;;;;;;;;;;;;16.39;45.04;98835.22;4956892;28;126606;-63
2023/04/01 00:38:06;;;;;;;;;;;;;;;16.38;45.01;98834.41;4958665;28;125336;-63
2023/04/01 00:40:37;;;;;;;;;;;;;;;16.37;45.01;98832.06;4961255;28;97926;-64
2023/04/01 00:43:03;;;;;;;;;;;;;;;16.36;44.95;98833.97;4959147;28;105504;-67
2023/04/01 00:45:32;;;;;;;;;;;;;;;16.36;44.78;98830.47;4957018;28;118633;-63
2023/04/01 00:47:59;;;;;;;;;;;;;;;16.36;45.00;98833.97;4941179;28;98432;-63
2023/04/01 00:50:25;;;;;;;;;;;;;;;16.42;44.98;98834.53;4940956;28;98689;-64
2023/04/01 00:52:51;;;;;;;;;;;;;;;16.50;44.98;98843.66;4941319;28;117339;-63
2023/04/01 00:55:17;;;;;;;;;;;;;;;16.56;45.11;98837.66;4970121;27;119957;-63
2023/04/01 00:57:43;;;;;;;;;;;;;;;16.63;45.03;98839.78;4956201;28;98373;-64
2023/04/01 01:00:10;;;;;;;;;;;;;;;16.67;44.83;98837.97;4938714;28;105349;-64
2023/04/01 01:02:36;;;;;;;;;;;;;;;16.71;44.89;98840.78;4945345;28;97822;-64
2023/04/01 01:05:02;;;;;;;;;;;;;;;16.75;44.97;98841.69;4951119;28;125963;-67
2023/04/01 01:07:34;;;;;;;;;;;;;;;16.76;44.96;98830.47;4956024;28;112119;-64
2023/04/01 01:10:10;;;;;;;;;;;;;;;16.78;44.95;98835.53;4954363;28;97994;-67
2023/04/01 01:12:46;;;;;;;;;;;;;;;16.80;44.93;98838.72;4956187;28;100040;-67
2023/04/01 01:15:48;;;;;;;;;;;;;;;16.81;45.02;98838.34;4942512;28;108286;-67
2023/04/01 01:18:38;;;;;;;;;;;;;;;16.84;44.92;98839.59;4952921;28;98857;-66
2023/04/01 01:21:19;;;;;;;;;;;;;;;16.84;45.02;98836.88;4931069;28;113435;-68
2023/04/01 01:24:08;;;;;;;;;;;;;;;16.85;45.08;98839.25;4959737;28;97923;-63
2023/04/01 01:26:55;;;;;;;;;;;;;;;16.85;45.05;98833.81;4957063;28;98497;-67
2023/04/01 01:29:39;;;;;;;;;;;;;;;16.86;44.97;98829.19;4943503;28;98189;-67
2023/04/01 01:32:26;;;;;;;;;;;;;;;16.85;45.17;98831.09;4957097;28;98330;-63
2023/04/01 01:34:55;;;;;;;;;;;;;;;16.84;45.13;98839.59;4957576;28;97821;-68
2023/04/01 01:37:22;;;;;;;;;;;;;;;16.84;45.12;98843.13;4955642;28;98411;-68
2023/04/01 01:39:52;;;;;;;;;;;;;;;16.84;45.04;98840.38;4955967;28;113874;-63
2023/04/01 01:42:18;;;;;;;;;;;;;;;16.85;45.19;98838.47;4939584;28;114817;-63
2023/04/01 01:44:45;;;;;;;;;;;;;;;16.84;45.05;98839.59;4940062;28;116794;-68
2023/04/01 01:47:11;;;;;;;;;;;;;;;16.83;45.17;98832.59;4961351;27;99056;-67
2023/04/01 01:49:37;;;;;;;;;;;;;;;16.82;45.17;98830.97;4942066;28;128093;-65
2023/04/01 01:52:03;;;;;;;;;;;;;;;16.81;45.13;98832.91;4939956;28;100993;-63
2023/04/01 01:54:29;;;;;;;;;;;;;;;16.81;44.96;98835.63;4958807;28;97877;-68
2023/04/01 01:56:59;;;;;;;;;;;;;;;16.80;45.21;98836.78;4953158;28;128187;-63
2023/04/01 01:59:25;;;;;;;;;;;;;;;16.79;45.17;98837.13;4970583;27;120942;-63
2023/04/01 02:01:53;;;;;;;;;;;;;;;16.79;45.04;98834.41;4939595;28;126518;-67
2023/04/01 02:04:22;;;;;;;;;;;;;;;16.77;45.04;98840.19;4940618;28;98076;-64
2023/04/01 02:06:58;;;;;;;;;;;;;;;16.78;44.98;98835.53;4945574;28;98931;-66
2023/04/01 02:09:24;;;;;;;;;;;;;;;16.76;45.07;98837.84;4941797;28;116490;-67
2023/04/01 02:11:54;;;;;;;;;;;;;;;16.74;45.05;98840.91;4944212;28;108948;-67
2023/04/01 02:14:25;;;;;;;;;;;;;;;16.74;45.12;98848.25;4943485;28;98210;-64
2023/04/01 02:16:56;;;;;;;;;;;;;;;16.74;45.18;98845.53;4944856;28;98413;-66
2023/04/01 02:19:25;;;;;;;;;;;;;;;16.73;45.19;98838.50;4973773;27;98383;-66
2023/04/01 02:21:53;;;;;;;;;;;;;;;16.71;44.99;98844.28;4972876;27;98276;-68
2023/04/01 02:24:21;;;;;;;;;;;;;;;16.71;45.14;98838.84;4973231;27;110677;-63
2023/04/01 02:26:46;;;;;;;;;;;;;;;16.70;45.09;98839.97;4940255;28;98374;-69
2023/04/01 02:29:12;;;;;;;;;;;;;;;16.69;44.98;98836.44;4955475;28;127810;-67
2023/04/01 02:31:38;;;;;;;;;;;;;;;16.68;45.01;98837.59;4944041;28;108437;-68
2023/04/01 02:34:04;;;;;;;;;;;;;;;16.67;45.16;98838.75;4960450;28;117646;-64
2023/04/01 02:36:30;;;;;;;;;;;;;;;16.67;45.16;98835.25;4944830;28;98042;-64
2023/04/01 02:38:56;;;;;;;;;;;;;;;16.66;45.23;98848.06;4958223;28;127469;-67
2023/04/01 02:41:22;;;;;;;;;;;;;;;16.65;45.13;98845.66;4911779;28;98594;-68
2023/04/01 02:43:48;;;;;;;;;;;;;;;16.66;45.06;98852.69;4959131;28;117947;-67
2023/04/01 02:46:14;;;;;;;;;;;;;;;16.65;44.99;98856.53;4960360;28;127737;-67
2023/04/01 02:48:40;;;;;;;;;;;;;;;16.63;45.14;98856.91;4958958;28;104661;-64
2023/04/01 02:51:06;;;;;;;;;;;;;;;16.63;45.00;98867.78;4958100;28;126427;-64
2023/04/01 02:53:32;;;;;;;;;;;;;;;16.63;45.12;98864.28;4958919;28;97941;-67
2023/04/01 02:55:58;;;;;;;;;;;;;;;16.61;45.11;98864.59;4958407;28;128933;-68
2023/04/01 02:58:24;;;;;;;;;;;;;;;16.61;45.25;98867.31;4959440;28;127596;-67
2023/04/01 03:00:50;;;;;;;;;;;;;;;16.60;45.21;98863.03;4956039;28;98995;-63
2023/04/01 03:03:15;;;;;;;;;;;;;;;16.60;45.12;98868.47;4935480;28;116639;-68
2023/04/01 03:05:41;;;;;;;;;;;;;;;16.59;45.14;98864.16;4962309;28;113474;-63
2023/04/01 03:08:07;;;;;;;;;;;;;;;16.59;45.15;98869.59;4938124;28;128061;-67
2023/04/01 03:10:33;;;;;;;;;;;;;;;16.58;45.11;98870.72;4941278;28;113573;-68
2023/04/01 03:12:59;;;;;;;;;;;;;;;16.56;45.21;98870.28;4943446;28;116357;-64
2023/04/01 03:15:25;;;;;;;;;;;;;;;16.57;45.10;98871.06;4957270;28;98175;-63
2023/04/01 03:17:51;;;;;;;;;;;;;;;16.56;45.19;98875.72;4957354;28;128041;-64
2023/04/01 03:20:17;;;;;;;;;;;;;;;16.56;45.16;98872.22;4942140;28;98084;-67
2023/04/01 03:22:43;;;;;;;;;;;;;;;16.56;45.05;98867.56;4959016;28;116826;-64
2023/04/01 03:25:09;;;;;;;;;;;;;;;16.55;45.01;98871.44;4953928;28;97896;-67
2023/04/01 03:27:35;;;;;;;;;;;;;;;16.55;45.06;98867.94;4955936;28;98859;-63
2023/04/01 03:30:02;;;;;;;;;;;;;;;16.55;45.11;98870.66;4956571;28;98138;-64
2023/04/01 03:32:28;;;;;;;;;;;;;;;16.53;45.12;98879.13;4954898;28;115352;-64
2023/04/01 03:34:54;;;;;;;;;;;;;;;16.53;45.17;98881.84;4960829;28;102716;-67
2023/04/01 03:37:20;;;;;;;;;;;;;;;16.53;45.04;98884.56;4958654;28;98248;-67
2023/04/01 03:39:46;;;;;;;;;;;;;;;16.53;44.98;98892.72;4957313;28;128279;-63
2023/04/01 03:42:12;;;;;;;;;;;;;;;16.52;45.10;98891.16;4955021;28;116842;-68
2023/04/01 03:44:38;;;;;;;;;;;;;;;16.52;45.14;98888.44;4957962;28;98668;-67
2023/04/01 03:47:04;;;;;;;;;;;;;;;16.52;45.20;98893.09;4955495;28;97813;-63
2023/04/01 03:49:31;;;;;;;;;;;;;;;16.51;45.12;98888.78;4958880;28;97981;-68
2023/04/01 03:51:57;;;;;;;;;;;;;;;16.52;45.14;98898.53;4958167;28;97850;-67
2023/04/01 03:54:23;;;;;;;;;;;;;;;16.50;45.13;98893.41;4958021;28;126867;-68
2023/04/01 03:56:49;;;;;;;;;;;;;;;16.50;45.02;98903.50;4959287;28;106589;-68
2023/04/01 03:59:15;;;;;;;;;;;;;;;16.49;45.17;98896.50;4957429;28;99122;-67
2023/04/01 04:01:41;;;;;;;;;;;;;;;16.50;45.13;98898.84;4958071;28;97816;-64
2023/04/01 04:04:08;;;;;;;;;;;;;;;16.50;45.26;98900.78;4956931;28;127121;-68
2023/04/01 04:06:33;;;;;;;;;;;;;;;16.49;45.20;98905.44;4956768;28;98747;-64
2023/04/01 04:08:59;;;;;;;;;;;;;;;16.49;44.99;98908.16;4935887;28;127254;-67
2023/04/01 04:11:25;;;;;;;;;;;;;;;16.48;45.20;98901.13;4957071;28;120176;-64
2023/04/01 04:13:52;;;;;;;;;;;;;;;16.48;45.17;98898.41;4957792;28;128422;-66
2023/04/01 04:16:18;;;;;;;;;;;;;;;16.48;45.18;98897.63;4962622;28;98868;-63
2023/04/01 04:18:44;;;;;;;;;;;;;;;16.47;45.06;98901.50;4956584;28;114523;-67
2023/04/01 04:21:14;;;;;;;;;;;;;;;16.47;45.11;98896.84;4954168;28;117062;-67
2023/04/01 04:23:40;;;;;;;;;;;;;;;16.46;45.10;98897.97;4957240;28;99101;-67
2023/04/01 04:26:07;;;;;;;;;;;;;;;16.47;45.02;98898.78;4970423;27;97955;-63
2023/04/01 04:28:33;;;;;;;;;;;;;;;16.46;45.00;98911.56;4959401;28;121950;-67
2023/04/01 04:30:59;;;;;;;;;;;;;;;16.44;45.22;98898.31;4959267;28;98155;-68
2023/04/01 04:33:25;;;;;;;;;;;;;;;16.44;45.11;98911.91;4958712;28;98223;-63
2023/04/01 04:35:51;;;;;;;;;;;;;;;16.43;45.24;98907.63;4957206;28;124636;-63
2023/04/01 04:38:17;;;;;;;;;;;;;;;16.44;45.13;98914.63;4958707;28;97962;-68
2023/04/01 04:40:43;;;;;;;;;;;;;;;16.43;45.11;98918.50;4959145;28;117498;-64
2023/04/01 04:43:13;;;;;;;;;;;;;;;16.45;45.19;98915.41;4969085;27;119110;-64
2023/04/01 04:45:39;;;;;;;;;;;;;;;16.45;45.05;98912.69;4971721;27;98183;-67
2023/04/01 04:48:07;;;;;;;;;;;;;;;16.47;45.22;98909.66;4959692;28;123815;-64
2023/04/01 04:50:33;;;;;;;;;;;;;;;16.48;45.06;98914.75;4958029;28;97857;-63
2023/04/01 04:52:59;;;;;;;;;;;;;;;16.49;45.31;98916.31;4953457;28;116205;-63
2023/04/01 04:55:24;;;;;;;;;;;;;;;16.51;45.14;98913.28;4960221;28;99805;-68
2023/04/01 04:57:50;;;;;;;;;;;;;;;16.53;44.96;98917.22;4955415;28;125933;-68
2023/04/01 05:00:17;;;;;;;;;;;;;;;16.56;45.01;98924.69;4958728;28;117289;-64
2023/04/01 05:02:42;;;;;;;;;;;;;;;16.58;45.01;98919.69;4945095;28;98321;-68
2023/04/01 05:05:09;;;;;;;;;;;;;;;16.64;45.05;98925.69;4935951;28;128522;-63
2023/04/01 05:07:34;;;;;;;;;;;;;;;16.66;44.93;98926.94;4955873;28;98401;-64
2023/04/01 05:10:00;;;;;;;;;;;;;;;16.71;44.84;98925.91;4953036;28;118284;-68
2023/04/01 05:12:26;;;;;;;;;;;;;;;16.75;44.73;98932.25;4954265;28;128135;-64
2023/04/01 05:14:52;;;;;;;;;;;;;;;16.77;44.90;98929.97;4957542;28;98538;-67
2023/04/01 05:17:18;;;;;;;;;;;;;;;16.83;44.91;98935.97;4960539;28;113611;-67
2023/04/01 05:19:44;;;;;;;;;;;;;;;16.86;44.77;98933.38;4956154;28;117621;-68
2023/04/01 05:22:10;;;;;;;;;;;;;;;16.91;44.89;98935.03;4941972;28;128139;-64
2023/04/01 05:24:36;;;;;;;;;;;;;;;16.95;44.64;98926.97;4958480;28;119080;-64
2023/04/01 05:27:02;;;;;;;;;;;;;;;16.97;44.78;98938.28;4955454;28;128071;-68
2023/04/01 05:29:28;;;;;;;;;;;;;;;17.00;44.69;98943.06;4957258;28;97898;-64
2023/04/01 05:31:54;;;;;;;;;;;;;;;17.03;44.67;98936.94;4959012;28;125604;-68
2023/04/01 05:34:19;;;;;;;;;;;;;;;17.08;44.76;98947.56;4954859;28;98925;-64
2023/04/01 05:36:45;;;;;;;;;;;;;;;17.12;44.68;98943.78;4927700;28;122101;-68
2023/04/01 05:39:11;;;;;;;;;;;;;;;17.14;44.61;98943.47;4954049;28;116958;-64
2023/04/01 05:41:38;;;;;;;;;;;;;;;17.14;44.80;98941.53;4952203;28;128005;-64
2023/04/01 05:44:04;;;;;;;;;;;;;;;17.18;44.57;98947.84;4943150;28;98831;-67
2023/04/01 05:46:30;;;;;;;;;;;;;;;17.21;44.55;98949.06;4957063;28;98111;-64
2023/04/01 05:48:56;;;;;;;;;;;;;;;17.24;44.62;98950.31;4941810;28;97925;-63
2023/04/01 05:51:22;;;;;;;;;;;;;;;17.27;44.51;98952.34;4956049;28;124413;-64
2023/04/01 05:53:48;;;;;;;;;;;;;;;17.30;44.62;98954.38;4960302;28;128098;-67
2023/04/01 05:56:14;;;;;;;;;;;;;;;17.33;44.53;98954.47;4943494;28;126527;-67
2023/04/01 05:58:40;;;;;;;;;;;;;;;17.39;44.42;98957.72;4958300;28;118334;-64
2023/04/01 06:01:07;;;;;;;;;;;;;;;17.42;44.58;98959.75;4958328;28;98366;-67
2023/04/01 06:03:34;;;;;;;;;;;;;;;17.45;44.39;98969.16;4956462;28;98374;-69
2023/04/01 06:06:00;;;;;;;;;;;;;;;17.49;44.40;98967.31;4958064;28;97913;-64
2023/04/01 06:08:26;;;;;;;;;;;;;;;17.52;44.54;98972.84;4959212;28;97960;-64
2023/04/01 06:10:55;;;;;;;;;;;;;;;17.50;44.50;98968.91;4957320;28;98306;-67
2023/04/01 06:13:43;;;;;;;;;;;;;;;17.53;44.62;98968.22;4955430;28;98812;-64
2023/04/01 06:16:28;;;;;;;;;;;;;;;17.60;44.39;98968.38;4931555;28;120428;-64
2023/04/01 06:19:10;;;;;;;;;;;;;;;17.74;44.44;98976.16;4956918;28;98076;-68
2023/04/01 06:21:48;;;;;;;;;;;;;;;17.87;44.27;98981.19;4958543;28;98437;-64
2023/04/01 06:24:39;;;;;;;;;;;;;;;18.03;43.89;98983.13;4955673;28;98146;-65
2023/04/01 06:27:23;;;;;;;;;;;;;;;18.18;43.81;98984.25;4943428;28;98142;-69
2023/04/01 06:30:02;;;;;;;;;;;;;;;18.26;43.85;98983.28;4957611;28;113246;-64
2023/04/01 06:32:34;;;;;;;;;;;;;;;18.37;43.96;98987.06;4931569;28;98626;-65
2023/04/01 06:35:11;;;;;;;;;;;;;;;18.48;43.79;98985.38;4956789;28;98869;-64
2023/04/01 06:37:50;;;;;;;;;;;;;;;18.61;43.57;98994.22;4944529;28;98454;-65
2023/04/01 06:40:19;;;;;;;;;;;;;;;18.74;43.58;98995.69;4971618;27;98274;-64
2023/04/01 06:42:57;;;;;;;;;;;;;;;18.85;43.63;98991.25;4957393;28;98058;-63
2023/04/01 06:46:13;;;;;;;;;;;;;;;18.97;43.55;98984.88;4958706;28;100815;-67
2023/04/01 06:48:48;;;;;;;;;;;;;;;19.13;43.60;98993.78;4950930;28;127449;-64
2023/04/01 06:51:22;;;;;;;;;;;;;;;19.37;43.41;98997.38;4944198;28;98138;-64
2023/04/01 06:53:54;;;;;;;;;;;;;;;19.60;43.14;98994.69;4926476;28;127737;-67
2023/04/01 06:56:21;;;;;;;;;;;;;;;19.72;43.20;98994.53;4940037;28;98840;-67
2023/04/01 06:58:51;;;;;;;;;;;;;;;19.87;43.18;99001.03;4941237;28;98357;-67
2023/04/01 07:01:26;;;;;;;;;;;;;;;19.88;43.31;99008.09;4936683;28;98409;-68
2023/04/01 07:04:13;;;;;;;;;;;;;;;19.76;43.36;99002.78;4938545;28;98456;-69
2023/04/01 07:06:51;;;;;;;;;;;;;;;19.66;43.69;99003.41;4954456;28;124390;-65
2023/04/01 07:09:20;;;;;;;;;;;;;;;19.58;43.89;99011.44;4957348;28;98025;-68
2023/04/01 07:11:46;;;;;;;;;;;;;;;19.57;43.84;99015.34;4946082;28;98184;-68
2023/04/01 07:14:31;;;;;;;;;;;;;;;19.57;43.82;99015.34;4954998;28;98863;-68
2023/04/01 07:17:26;;;;;;;;;;;;;;;19.57;43.77;99022.72;4937634;28;117254;-66
2023/04/01 07:20:17;;;;;;;;;;;;;;;19.55;43.88;99014.09;4955200;28;97898;-64
2023/04/01 07:22:45;;;;;;;;;;;;;;;19.54;43.84;99021.53;4938022;28;111387;-68
2023/04/01 07:25:25;;;;;;;;;;;;;;;19.51;43.89;99021.44;4942092;28;120704;-68
2023/04/01 07:27:52;;;;;;;;;;;;;;;19.56;43.82;99023.88;4941349;28;100894;-64
2023/04/01 07:30:20;;;;;;;;;;;;;;;19.55;43.98;99023.09;4954266;28;126336;-65
2023/04/01 07:32:56;;;;;;;;;;;;;;;19.53;43.86;99030.06;4958706;28;99630;-68
2023/04/01 07:35:29;;;;;;;;;;;;;;;19.47;44.04;99032.31;4936392;28;113750;-69
2023/04/01 07:38:35;;;;;;;;;;;;;;;19.43;44.17;99042.38;4927957;28;98523;-65
2023/04/01 07:41:27;;;;;;;;;;;;;;;19.36;44.19;99036.78;4954508;28;130330;-66
2023/04/01 07:44:05;;;;;;;;;;;;;;;19.34;44.36;99036.34;4941721;28;99433;-68
2023/04/01 07:46:43;;;;;;;;;;;;;;;19.28;44.27;99037.78;4971726;27;122063;-65
2023/04/01 07:49:27;;;;;;;;;;;;;;;19.22;44.34;99042.75;4955481;28;99157;-68
2023/04/01 07:51:58;;;;;;;;;;;;;;;19.20;44.33;99033.31;4956320;28;98120;-68
2023/04/01 07:54:37;;;;;;;;;;;;;;;19.17;44.38;99037.56;4957449;28;98238;-65
2023/04/01 07:57:08;;;;;;;;;;;;;;;19.12;44.28;99035.91;4974290;27;99358;-69
2023/04/01 07:59:43;;;;;;;;;;;;;;;19.10;44.31;99045.63;4938840;28;117099;-69
2023/04/01 08:02:32;;;;;;;;;;;;;;;19.09;44.44;99046.75;4953837;28;98169;-68
2023/04/01 08:05:10;;;;;;;;;;;;;;;19.08;44.27;99045.97;4952884;28;115890;-65
2023/04/01 08:08:09;;;;;;;;;;;;;;;19.07;44.26;99052.56;4952931;28;116090;-65
2023/04/01 08:11:06;;;;;;;;;;;;;;;19.06;44.38;99051.00;4946222;28;98668;-64
2023/04/01 08:13:55;;;;;;;;;;;;;;;19.10;44.23;99059.28;4944977;28;100123;-65
2023/04/01 08:16:26;;;;;;;;;;;;;;;19.06;44.34;99051.00;4953385;28;99495;-64
2023/04/01 08:19:13;;;;;;;;;;;;;;;19.04;44.46;99057.97;4938498;28;122086;-68
2023/04/01 08:21:47;;;;;;;;;;;;;;;19.05;44.20;99065.78;4953760;28;98436;-69
2023/04/01 08:24:40;;;;;;;;;;;;;;;19.03;44.36;99054.44;4955871;28;127955;-65
2023/04/01 08:27:22;;;;;;;;;;;;;;;19.10;44.41;99060.06;4940252;28;113789;-69
2023/04/01 08:29:55;;;;;;;;;;;;;;;19.22;44.04;99061.88;4937845;28;126352;-65
2023/04/01 08:32:25;;;;;;;;;;;;;;;19.23;44.17;99055.25;4954992;28;126262;-68
2023/04/01 08:35:05;;;;;;;;;;;;;;;19.34;44.03;99060.94;4942476;28;98274;-65
2023/04/01 08:37:32;;;;;;;;;;;;;;;19.40;44.13;99062.22;4952316;28;97990;-67
2023/04/01 08:40:01;;;;;;;;;;;;;;;19.45;44.08;99063.88;4956069;28;106062;-65
2023/04/01 08:42:52;;;;;;;;;;;;;;;19.53;44.00;99057.38;4953424;28;110799;-68
2023/04/01 08:45:41;;;;;;;;;;;;;;;19.60;44.04;99061.06;4970394;27;122800;-68
2023/04/01 08:48:22;;;;;;;;;;;;;;;19.67;43.76;99063.16;4967182;27;102101;-69
2023/04/01 08:51:12;;;;;;;;;;;;;;;19.74;43.82;99063.31;4961276;28;98201;-67
2023/04/01 08:53:50;;;;;;;;;;;;;;;19.80;43.76;99056.38;4957561;28;97934;-64
2023/04/01 08:56:30;;;;;;;;;;;;;;;19.94;43.82;99061.31;4960223;28;125113;-66
2023/04/01 08:59:38;;;;;;;;;;;;;;;19.98;43.68;99070.38;4975858;27;98117;-65
2023/04/01 09:02:31;;;;;;;;;;;;;;;20.04;43.76;99065.38;4945624;28;98452;-65
2023/04/01 09:05:17;;;;;;;;;;;;;;;20.00;43.88;99070.00;4949594;28;98300;-66
2023/04/01 09:07:55;;;;;;;;;;;;;;;19.93;44.01;99064.44;4945370;28;99563;-68
2023/04/01 09:10:36;;;;;;;;;;;;;;;19.88;44.06;99067.44;4961631;28;98019;-67
2023/04/01 09:13:12;;;;;;;;;;;;;;;19.82;44.12;99061.50;4947823;28;98797;-68
2023/04/01 09:15:48;;;;;;;;;;;;;;;19.75;44.12;99064.88;4958249;28;98099;-68
2023/04/01 09:18:24;;;;;;;;;;;;;;;19.72;44.22;99065.59;4976704;27;98574;-65
2023/04/01 09:20:53;;;;;;;;;;;;;;;19.80;44.13;99061.84;4959870;28;98045;-65
2023/04/01 09:23:37;;;;;;;;;;;;;;;19.94;43.94;99066.00;4959288;28;98149;-65
2023/04/01 09:26:13;;;;;;;;;;;;;;;19.96;43.90;99066.41;4958952;28;99047;-69
2023/04/01 09:28:45;;;;;;;;;;;;;;;20.14;43.65;99066.75;4946048;28;103628;-68
2023/04/01 09:31:27;;;;;;;;;;;;;;;20.22;43.60;99071.19;4952965;28;116680;-69
2023/04/01 09:34:28;;;;;;;;;;;;;;;20.24;43.78;99064.19;4957056;28;100528;-69
2023/04/01 09:36:56;;;;;;;;;;;;;;;20.22;44.01;99071.19;4941941;28;98959;-64
2023/04/01 09:39:37;;;;;;;;;;;;;;;20.15;43.97;99071.84;4960601;28;103582;-64
2023/04/01 09:42:16;;;;;;;;;;;;;;;20.09;44.00;99062.38;4961057;28;98154;-68
2023/04/01 09:45:01;;;;;;;;;;;;;;;20.08;44.06;99072.53;4971924;27;100112;-69
2023/04/01 09:47:39;;;;;;;;;;;;;;;20.03;44.18;99075.53;4948472;28;105966;-67
2023/04/01 09:50:10;;;;;;;;;;;;;;;20.01;44.21;99080.59;4956736;28;98278;-65
2023/04/01 09:53:01;;;;;;;;;;;;;;;19.97;44.07;99077.00;4961476;28;98354;-64
2023/04/01 09:55:53;;;;;;;;;;;;;;;19.87;44.34;99077.59;4961048;28;99531;-64
2023/04/01 09:58:40;;;;;;;;;;;;;;;19.82;44.40;99075.16;4940321;28;102542;-64
2023/04/01 10:01:10;;;;;;;;;;;;;;;19.80;44.30;99080.97;4961306;28;98088;-69
2023/04/01 10:03:54;;;;;;;;;;;;;;;19.79;44.24;99079.41;4960465;28;97974;-68
2023/04/01 10:06:57;;;;;;;;;;;;;;;19.72;44.50;99083.94;4960319;28;98495;-65
2023/04/01 10:09:47;;;;;;;;;;;;;;;19.67;44.46;99087.75;4959020;28;97907;-69
2023/04/01 10:13:07;;;;;;;;;;;;;;;19.71;44.30;99083.16;4945814;28;103422;-65
2023/04/01 10:15:46;;;;;;;;;;;;;;;19.73;44.29;99082.78;4900623;28;98283;-65
2023/04/01 10:18:30;;;;;;;;;;;;;;;19.69;44.29;99088.22;4933521;28;127840;-64
2023/04/01 10:21:02;;;;;;;;;;;;;;;19.71;44.39;99087.84;4945324;28;98429;-64
2023/04/01 10:23:30;;;;;;;;;;;;;;;19.70;44.29;99087.06;4947688;27;98282;-68
2023/04/01 10:26:10;;;;;;;;;;;;;;;19.71;44.23;99082.38;4977904;27;98783;-64
2023/04/01 10:29:08;;;;;;;;;;;;;;;19.75;44.25;99094.94;4956242;27;122495;-64
2023/04/01 10:31:56;;;;;;;;;;;;;;;19.81;44.22;99088.06;4972829;27;98503;-67
2023/04/01 10:34:53;;;;;;;;;;;;;;;19.78;44.25;99085.25;4973234;27;98559;-64
2023/04/01 10:37:47;;;;;;;;;;;;;;;19.84;44.23;99089.25;4948956;27;110653;-65
2023/04/01 10:40:39;;;;;;;;;;;;;;;19.97;44.40;99092.63;4976886;27;98284;-65
2023/04/01 10:43:19;;;;;;;;;;;;;;;20.10;44.21;99096.75;4965092;28;106584;-68
2023/04/01 10:45:49;;;;;;;;;;;;;;;20.26;43.98;99086.50;4962102;28;98077;-68
2023/04/01 10:48:30;;;;;;;;;;;;;;;20.45;43.86;99087.59;4965385;27;97962;-69
2023/04/01 10:51:16;;;;;;;;;;;;;;;20.57;43.76;99088.22;4976844;27;97875;-66
2023/04/01 10:54:20;;;;;;;;;;;;;;;20.58;43.87;99087.03;4962400;28;98290;-64
2023/04/01 10:56:53;;;;;;;;;;;;;;;20.66;43.91;99100.84;4982287;27;98064;-65
2023/04/01 10:59:27;;;;;;;;;;;;;;;20.66;44.09;99096.16;4958550;27;98096;-66
2023/04/01 11:02:20;;;;;;;;;;;;;;;20.68;44.08;99096.59;4966387;28;98563;-65
2023/04/01 11:04:57;;;;;;;;;;;;;;;20.87;43.82;99095.72;4960542;27;115420;-69
2023/04/01 11:07:46;;;;;;;;;;;;;;;21.12;43.51;99090.56;4963370;27;98088;-65
2023/04/01 11:10:40;;;;;;;;;;;;;;;21.38;43.49;99095.25;4962846;28;111645;-68
2023/04/01 11:13:43;;;;;;;;;;;;;;;21.31;43.61;99090.44;4976983;27;98441;-65
2023/04/01 11:16:39;;;;;;;;;;;;;;;21.29;43.80;99090.00;4948488;27;99049;-69
2023/04/01 11:19:26;;;;;;;;;;;;;;;21.27;43.86;99091.56;4992705;27;99824;-65
2023/04/01 11:22:13;;;;;;;;;;;;;;;21.27;43.81;99097.81;4977449;27;98344;-69
2023/04/01 11:24:39;;;;;;;;;;;;;;;21.33;43.82;99090.09;4975684;27;98259;-69
2023/04/01 11:27:24;;;;;;;;;;;;;;;21.37;43.76;99087.38;4958791;27;98306;-66
2023/04/01 11:29:50;;;;;;;;;;;;;;;21.37;43.88;99090.13;4957725;27;100723;-65
2023/04/01 11:32:25;;;;;;;;;;;;;;;21.39;43.82;99087.81;4974948;27;97938;-69
2023/04/01 11:35:21;;;;;;;;;;;;;;;21.40;43.88;99095.66;4978269;27;98460;-68
2023/04/01 11:38:25;;;;;;;;;;;;;;;21.44;43.94;99099.22;4956317;27;98642;-68
2023/04/01 11:41:06;;;;;;;;;;;;;;;21.48;43.72;99102.03;4976520;27;97932;-67
2023/04/01 11:43:57;;;;;;;;;;;;;;;21.46;43.82;99101.63;4962798;27;98191;-70
2023/04/01 11:46:47;;;;;;;;;;;;;;;21.39;43.94;99105.03;4974811;27;99548;-66
2023/04/01 11:49:29;;;;;;;;;;;;;;;21.25;44.05;99115.78;4945521;28;103263;-70
2023/04/01 11:52:11;;;;;;;;;;;;;;;21.02;44.16;99118.59;4947047;28;98261;-68
2023/04/01 11:55:06;;;;;;;;;;;;;;;20.78;44.41;99123.31;4958474;27;99072;-67
2023/04/01 11:57:52;;;;;;;;;;;;;;;20.58;44.62;99114.41;4964474;27;98481;-65
2023/04/01 12:00:34;;;;;;;;;;;;;;;20.48;44.66;99119.69;4964354;28;98684;-66
2023/04/01 12:03:23;;;;;;;;;;;;;;;20.42;44.66;99121.94;4962222;28;98210;-68
2023/04/01 12:06:20;;;;;;;;;;;;;;;20.33;44.71;99124.91;4981771;27;98055;-65
2023/04/01 12:09:09;;;;;;;;;;;;;;;20.26;44.72;99127.53;4977935;27;99529;-65
2023/04/01 12:11:41;;;;;;;;;;;;;;;20.21;44.68;99125.09;4972169;27;98325;-68
2023/04/01 12:14:34;;;;;;;;;;;;;;;20.18;44.62;99125.03;4965534;28;113072;-64
2023/04/01 12:17:15;;;;;;;;;;;;;;;20.16;44.61;99127.34;4946935;28;114000;-66
2023/04/01 12:19:48;;;;;;;;;;;;;;;20.12;44.75;99130.00;4959442;27;98021;-65
2023/04/01 12:22:17;;;;;;;;;;;;;;;20.08;44.75;99129.97;4990151;27;127591;-65
2023/04/01 12:24:49;;;;;;;;;;;;;;;20.05;44.70;99136.16;4981176;27;103797;-70
2023/04/01 12:27:18;;;;;;;;;;;;;;;20.04;44.79;99133.75;4964013;27;98926;-68
2023/04/01 12:29:57;;;;;;;;;;;;;;;20.05;44.69;99138.88;4974636;27;97975;-65
2023/04/01 12:32:25;;;;;;;;;;;;;;;20.10;44.54;99127.63;4975628;27;98481;-66
2023/04/01 12:35:02;;;;;;;;;;;;;;;20.15;44.54;99128.50;4962799;28;108949;-69
2023/04/01 12:37:54;;;;;;;;;;;;;;;20.18;44.65;99134.03;4979244;27;98060;-66
2023/04/01 12:40:51;;;;;;;;;;;;;;;20.20;44.56;99131.75;4961719;27;98460;-66
2023/04/01 12:43:17;;;;;;;;;;;;;;;20.16;44.61;99141.81;4963744;27;124534;-68
2023/04/01 12:46:03;;;;;;;;;;;;;;;20.15;44.63;99132.00;4977326;27;98323;-66
2023/04/01 12:48:50;;;;;;;;;;;;;;;20.17;44.54;99126.97;4948766;27;103919;-66
2023/04/01 12:51:41;;;;;;;;;;;;;;;20.16;44.60;99136.34;4976451;27;98768;-66
2023/04/01 12:54:16;;;;;;;;;;;;;;;20.10;44.61;99129.59;4926914;27;125854;-68
2023/04/01 12:57:21;;;;;;;;;;;;;;;20.03;44.79;99132.97;4977437;27;98619;-68
2023/04/01 13:00:24;;;;;;;;;;;;;;;20.01;44.97;99134.50;4965424;27;98077;-69
2023/04/01 13:03:31;;;;;;;;;;;;;;;20.02;44.83;99134.13;4979030;27;98912;-68
2023/04/01 13:06:00;;;;;;;;;;;;;;;20.04;44.68;99123.63;4954609;27;98167;-66
2023/04/01 13:08:55;;;;;;;;;;;;;;;20.04;44.55;99131.03;4977293;27;99700;-65
2023/04/01 13:11:33;;;;;;;;;;;;;;;19.96;44.97;99130.09;4938276;28;99101;-69
2023/04/01 13:14:06;;;;;;;;;;;;;;;19.86;44.94;99131.50;4939709;28;106600;-64
2023/04/01 13:16:38;;;;;;;;;;;;;;;19.78;45.06;99151.63;4938099;28;98886;-65
2023/04/01 13:19:15;;;;;;;;;;;;;;;19.71;45.17;99145.25;4916563;28;117084;-67
2023/04/01 13:21:58;;;;;;;;;;;;;;;19.60;45.14;99159.44;4922641;28;113059;-67
2023/04/01 13:24:50;;;;;;;;;;;;;;;19.51;45.26;99160.81;4907592;28;98213;-65